createdAt,value
2022-09-21T00:01:40.158Z,63.13
2022-09-21T00:04:08.803Z,63.40
2022-09-21T00:06:37.564Z,63.08
2022-09-21T00:09:08.330Z,63.24
2022-09-21T00:11:37.771Z,63.31
2022-09-21T00:14:11.254Z,62.99
2022-09-21T00:16:40.875Z,63.17
2022-09-21T00:19:09.441Z,63.21
2022-09-21T00:21:38.417Z,63.27
2022-09-21T00:24:07.705Z,63.32
2022-09-21T00:26:36.784Z,63.33
2022-09-21T00:29:07.428Z,63.23
2022-09-21T00:31:36.007Z,63.25
2022-09-21T00:34:07.946Z,63.40
2022-09-21T00:36:36.486Z,63.25
2022-09-21T00:39:05.544Z,63.29
2022-09-21T00:41:35.411Z,63.73
2022-09-21T00:44:31.055Z,63.36
2022-09-21T00:47:05.563Z,63.53
2022-09-21T00:49:36.192Z,63.31
2022-09-21T00:52:06.757Z,63.45
2022-09-21T00:54:41.108Z,63.11
2022-09-21T00:57:10.277Z,63.56
2022-09-21T00:59:41.683Z,63.47
2022-09-21T01:02:10.040Z,63.79
2022-09-21T01:04:40.479Z,63.74
2022-09-21T01:07:13.612Z,63.85
2022-09-21T01:09:43.626Z,63.96
2022-09-21T01:12:27.649Z,63.92
2022-09-21T01:15:04.697Z,64.29
2022-09-21T01:17:45.948Z,64.14
2022-09-21T01:20:42.373Z,63.88
2022-09-21T01:23:31.047Z,63.97
2022-09-21T01:26:07.995Z,63.91
2022-09-21T01:29:09.196Z,63.41
2022-09-21T01:31:43.603Z,63.27
2022-09-21T01:34:17.977Z,63.39
2022-09-21T01:36:48.861Z,63.12
2022-09-21T01:39:21.275Z,63.23
2022-09-21T01:41:52.758Z,63.23
2022-09-21T01:44:24.949Z,62.87
2022-09-21T01:46:55.808Z,63.27
2022-09-21T01:49:30.841Z,63.26
2022-09-21T01:52:02.296Z,63.23
2022-09-21T01:54:36.035Z,63.05
2022-09-21T01:57:07.577Z,63.51
2022-09-21T01:59:45.238Z,63.30
2022-09-21T02:02:19.635Z,63.30
2022-09-21T02:04:48.384Z,63.55
2022-09-21T02:07:18.397Z,63.39
2022-09-21T02:09:48.607Z,63.34
2022-09-21T02:12:19.171Z,63.53
2022-09-21T02:14:48.163Z,63.69
2022-09-21T02:17:32.728Z,63.39
2022-09-21T02:20:17.718Z,63.35
2022-09-21T02:23:00.431Z,63.45
2022-09-21T02:25:40.319Z,63.62
2022-09-21T02:28:15.550Z,63.44
2022-09-21T02:30:53.159Z,63.05
2022-09-21T02:33:30.295Z,63.28
2022-09-21T02:36:07.665Z,63.66
2022-09-21T02:38:40.939Z,63.43
2022-09-21T02:41:15.513Z,63.71
2022-09-21T02:43:48.896Z,63.39
2022-09-21T02:46:21.274Z,63.48
2022-09-21T02:48:54.731Z,63.05
2022-09-21T02:51:27.231Z,63.04
2022-09-21T02:53:57.610Z,63.35
2022-09-21T02:56:28.105Z,63.08
2022-09-21T02:59:00.759Z,63.03
2022-09-21T03:01:30.910Z,63.15
2022-09-21T03:04:01.176Z,63.56
2022-09-21T03:06:29.609Z,63.52
2022-09-21T03:08:58.743Z,63.04
2022-09-21T03:11:27.284Z,63.25
2022-09-21T03:13:55.811Z,63.24
2022-09-21T03:16:24.360Z,63.06
2022-09-21T03:18:52.931Z,63.32
2022-09-21T03:21:23.883Z,63.43
2022-09-21T03:23:52.447Z,63.34
2022-09-21T03:26:22.500Z,63.65
2022-09-21T03:28:51.223Z,63.05
2022-09-21T03:31:19.753Z,63.17
2022-09-21T03:33:48.148Z,63.26
2022-09-21T03:36:16.747Z,62.98
2022-09-21T03:38:46.579Z,63.12
2022-09-21T03:41:15.394Z,63.42
2022-09-21T03:43:44.115Z,63.07
2022-09-21T03:46:12.728Z,63.23
2022-09-21T03:48:42.645Z,63.00
2022-09-21T03:51:11.323Z,63.12
2022-09-21T03:53:39.734Z,63.26
2022-09-21T03:56:09.935Z,63.51
2022-09-21T03:58:38.323Z,63.33
2022-09-21T04:01:06.711Z,63.17
2022-09-21T04:03:35.193Z,63.58
2022-09-21T04:06:10.359Z,63.53
2022-09-21T04:08:38.846Z,63.55
2022-09-21T04:11:13.161Z,63.55
2022-09-21T04:13:42.667Z,63.60
2022-09-21T04:16:11.621Z,63.59
2022-09-21T04:18:40.453Z,63.73
2022-09-21T04:21:08.831Z,63.67
2022-09-21T04:23:37.217Z,63.94
2022-09-21T04:26:05.865Z,63.46
2022-09-21T04:28:36.054Z,63.64
2022-09-21T04:31:04.424Z,63.40
2022-09-21T04:33:32.742Z,63.06
2022-09-21T04:36:02.080Z,63.09
2022-09-21T04:38:32.799Z,62.97
2022-09-21T04:41:03.542Z,63.25
2022-09-21T04:43:32.063Z,63.14
2022-09-21T04:46:06.925Z,63.36
2022-09-21T04:48:35.343Z,63.60
2022-09-21T04:51:04.116Z,63.31
2022-09-21T04:53:32.431Z,63.19
2022-09-21T04:56:00.748Z,63.48
2022-09-21T04:58:29.442Z,63.30
2022-09-21T05:00:57.735Z,63.08
2022-09-21T05:03:28.467Z,63.32
2022-09-21T05:05:58.657Z,62.96
2022-09-21T05:08:42.260Z,63.20
2022-09-21T05:11:13.456Z,63.12
2022-09-21T05:13:42.009Z,63.33
2022-09-21T05:16:11.019Z,63.49
2022-09-21T05:18:41.278Z,63.28
2022-09-21T05:21:11.027Z,63.39
2022-09-21T05:23:39.535Z,63.62
2022-09-21T05:26:07.962Z,63.34
2022-09-21T05:28:40.054Z,63.50
2022-09-21T05:31:24.450Z,63.33
2022-09-21T05:33:56.377Z,63.92
2022-09-21T05:36:38.123Z,64.05
2022-09-21T05:39:07.850Z,64.08
2022-09-21T05:41:37.359Z,63.89
2022-09-21T05:44:06.440Z,64.05
2022-09-21T05:46:40.419Z,63.77
2022-09-21T05:49:20.402Z,63.63
2022-09-21T05:52:02.315Z,63.91
2022-09-21T05:54:40.913Z,63.93
2022-09-21T05:57:15.928Z,64.05
2022-09-21T06:00:04.644Z,64.00
2022-09-21T06:02:52.959Z,64.05
2022-09-21T06:05:23.868Z,64.27
2022-09-21T06:07:52.354Z,64.20
2022-09-21T06:10:21.088Z,64.21
2022-09-21T06:12:49.472Z,64.13
2022-09-21T06:15:18.373Z,64.28
2022-09-21T06:17:46.811Z,64.64
2022-09-21T06:20:15.370Z,64.34
2022-09-21T06:22:45.442Z,64.48
2022-09-21T06:25:13.867Z,64.50
2022-09-21T06:27:42.304Z,64.70
2022-09-21T06:30:11.380Z,64.77
2022-09-21T06:32:39.846Z,64.65
2022-09-21T06:35:08.889Z,64.90
2022-09-21T06:37:38.568Z,64.74
2022-09-21T06:40:10.117Z,65.04
2022-09-21T06:42:38.508Z,65.16
2022-09-21T06:45:07.932Z,65.12
2022-09-21T06:47:36.315Z,65.48
2022-09-21T06:50:04.797Z,65.15
2022-09-21T06:52:33.423Z,65.42
2022-09-21T06:55:01.995Z,65.39
2022-09-21T06:57:32.911Z,65.32
2022-09-21T07:00:01.642Z,65.37
2022-09-21T07:02:30.068Z,65.43
2022-09-21T07:04:59.320Z,65.69
2022-09-21T07:07:30.491Z,65.53
2022-09-21T07:10:13.216Z,65.88
2022-09-21T07:12:46.014Z,65.99
2022-09-21T07:15:15.597Z,65.93
2022-09-21T07:17:51.681Z,65.94
2022-09-21T07:20:20.455Z,66.17
2022-09-21T07:22:49.050Z,66.21
2022-09-21T07:25:18.048Z,66.26
2022-09-21T07:27:48.382Z,66.34
2022-09-21T07:30:16.730Z,66.44
2022-09-21T07:32:45.206Z,66.70
2022-09-21T07:35:13.587Z,66.84
2022-09-21T07:37:41.937Z,66.76
2022-09-21T07:40:11.403Z,66.91
2022-09-21T07:42:39.796Z,66.97
2022-09-21T07:45:11.431Z,67.12
2022-09-21T07:47:39.827Z,67.10
2022-09-21T07:50:09.056Z,67.07
2022-09-21T07:52:37.459Z,67.12
2022-09-21T07:55:06.484Z,66.93
2022-09-21T07:57:51.928Z,67.03
2022-09-21T08:00:22.571Z,66.84
2022-09-21T08:02:51.438Z,66.85
2022-09-21T08:05:19.831Z,66.72
2022-09-21T08:07:48.525Z,66.82
2022-09-21T08:10:16.947Z,66.54
2022-09-21T08:12:45.276Z,66.42
2022-09-21T08:15:36.875Z,65.98
2022-09-21T08:18:07.392Z,65.78
2022-09-21T08:20:35.745Z,65.42
2022-09-21T08:23:04.395Z,65.13
2022-09-21T08:25:34.512Z,64.70
2022-09-21T08:28:08.845Z,64.25
2022-09-21T08:30:38.397Z,63.90
2022-09-21T08:33:08.397Z,63.81
2022-09-21T08:35:37.269Z,63.88
2022-09-21T08:38:05.623Z,63.64
2022-09-21T08:40:35.203Z,63.52
2022-09-21T08:43:09.097Z,63.44
2022-09-21T08:45:43.764Z,63.39
2022-09-21T08:48:24.034Z,63.47
2022-09-21T08:50:57.438Z,63.72
2022-09-21T08:53:31.192Z,63.66
2022-09-21T08:55:59.330Z,63.56
2022-09-21T08:58:29.689Z,63.41
2022-09-21T09:01:10.364Z,62.73
2022-09-21T09:03:57.422Z,62.18
2022-09-21T09:06:33.541Z,61.88
2022-09-21T09:09:25.322Z,60.77
2022-09-21T09:12:11.349Z,60.21
2022-09-21T09:15:01.591Z,59.93
2022-09-21T09:17:43.314Z,60.07
2022-09-21T09:20:17.592Z,59.93
2022-09-21T09:22:50.184Z,59.70
2022-09-21T09:25:22.760Z,59.64
2022-09-21T09:27:55.289Z,59.82
2022-09-21T09:30:26.391Z,59.99
2022-09-21T09:33:01.863Z,59.98
2022-09-21T09:35:37.510Z,59.89
2022-09-21T09:38:13.824Z,59.52
2022-09-21T09:40:58.014Z,59.46
2022-09-21T09:43:38.490Z,59.33
2022-09-21T09:46:16.007Z,59.03
2022-09-21T09:49:00.417Z,59.26
2022-09-21T09:51:30.356Z,59.26
2022-09-21T09:54:01.704Z,58.86
2022-09-21T09:56:31.745Z,58.54
2022-09-21T09:59:08.309Z,58.13
2022-09-21T10:01:43.206Z,58.08
2022-09-21T10:04:13.145Z,57.96
2022-09-21T10:06:46.418Z,57.54
2022-09-21T10:09:26.389Z,57.12
2022-09-21T10:11:56.687Z,57.06
2022-09-21T10:14:27.180Z,56.74
2022-09-21T10:17:00.127Z,56.19
2022-09-21T10:19:30.262Z,55.91
2022-09-21T10:22:03.520Z,55.65
2022-09-21T10:24:34.803Z,55.34
2022-09-21T10:27:10.573Z,54.73
2022-09-21T10:29:44.375Z,53.87
2022-09-21T10:32:23.694Z,53.83
2022-09-21T10:35:14.258Z,53.71
2022-09-21T10:37:46.659Z,52.90
2022-09-21T10:40:27.349Z,52.41
2022-09-21T10:42:58.785Z,52.25
2022-09-21T10:45:28.590Z,52.76
2022-09-21T10:47:59.876Z,52.71
2022-09-21T10:50:31.708Z,52.60
2022-09-21T10:53:12.721Z,52.73
2022-09-21T10:55:52.712Z,52.48
2022-09-21T10:58:32.827Z,52.49
2022-09-21T11:01:12.934Z,52.33
2022-09-21T11:03:51.108Z,52.30
2022-09-21T11:06:26.436Z,51.86
2022-09-21T11:09:00.724Z,51.91
2022-09-21T11:11:50.476Z,51.63
2022-09-21T11:14:31.194Z,51.98
2022-09-21T11:17:03.247Z,51.76
2022-09-21T11:19:40.109Z,51.60
2022-09-21T11:22:14.336Z,50.97
2022-09-21T11:24:50.311Z,50.42
2022-09-21T11:27:24.627Z,50.15
2022-09-21T11:30:03.150Z,50.06
2022-09-21T11:32:43.968Z,50.45
2022-09-21T11:35:47.723Z,50.22
2022-09-21T11:38:34.416Z,50.35
2022-09-21T11:41:22.551Z,50.79
2022-09-21T11:44:19.280Z,50.69
2022-09-21T11:46:56.189Z,50.74
2022-09-21T11:49:40.817Z,49.41
2022-09-21T11:52:23.584Z,49.09
2022-09-21T11:55:23.461Z,48.82
2022-09-21T11:57:59.565Z,48.45
2022-09-21T12:00:32.252Z,48.13
2022-09-21T12:03:30.963Z,48.05
2022-09-21T12:06:20.111Z,47.71
2022-09-21T12:09:02.612Z,48.19
2022-09-21T12:11:39.023Z,48.33
2022-09-21T12:14:17.659Z,48.13
2022-09-21T12:16:53.368Z,48.04
2022-09-21T12:19:33.259Z,47.49
2022-09-21T12:22:09.389Z,47.23
2022-09-21T12:24:42.212Z,47.17
2022-09-21T12:27:22.943Z,46.25
2022-09-21T12:29:56.950Z,46.27
2022-09-21T12:32:29.923Z,46.29
2022-09-21T12:35:03.793Z,46.38
2022-09-21T12:37:37.151Z,46.33
2022-09-21T12:40:15.271Z,45.57
2022-09-21T12:42:50.087Z,45.66
2022-09-21T12:45:27.077Z,45.66
2022-09-21T12:48:01.007Z,44.88
2022-09-21T12:50:44.939Z,43.49
2022-09-21T12:53:16.910Z,44.37
2022-09-21T12:55:54.947Z,44.48
2022-09-21T12:58:44.244Z,44.42
2022-09-21T13:01:26.447Z,44.94
2022-09-21T13:04:12.551Z,44.82
2022-09-21T13:07:05.324Z,45.02
2022-09-21T13:09:33.959Z,45.12
2022-09-21T13:12:08.953Z,45.16
2022-09-21T13:14:45.286Z,44.60
2022-09-21T13:17:22.989Z,44.10
2022-09-21T13:20:04.007Z,43.97
2022-09-21T13:22:34.547Z,44.36
2022-09-21T13:25:07.112Z,44.72
2022-09-21T13:28:00.790Z,43.78
2022-09-21T13:30:41.611Z,43.58
2022-09-21T13:33:40.440Z,43.78
2022-09-21T13:36:32.407Z,43.74
2022-09-21T13:39:17.291Z,43.27
2022-09-21T13:42:02.512Z,43.17
2022-09-21T13:44:44.198Z,43.54
2022-09-21T13:47:14.795Z,43.60
2022-09-21T13:49:57.181Z,43.55
2022-09-21T13:52:40.347Z,43.87
2022-09-21T13:55:25.031Z,43.63
2022-09-21T13:57:55.905Z,43.22
2022-09-21T14:00:43.410Z,42.64
2022-09-21T14:03:24.787Z,42.82
2022-09-21T14:05:57.147Z,43.18
2022-09-21T14:08:31.864Z,43.39
2022-09-21T14:11:03.824Z,43.48
2022-09-21T14:13:36.256Z,43.19
2022-09-21T14:16:44.722Z,43.03
2022-09-21T14:19:46.075Z,43.00
2022-09-21T14:22:41.455Z,43.50
2022-09-21T14:25:49.328Z,43.81
2022-09-21T14:28:19.795Z,44.03
2022-09-21T14:30:56.699Z,43.95
2022-09-21T14:33:33.883Z,42.97
2022-09-21T14:36:09.739Z,43.74
2022-09-21T14:38:52.006Z,43.25
2022-09-21T14:41:24.138Z,42.88
2022-09-21T14:43:55.733Z,42.74
2022-09-21T14:46:43.773Z,42.17
2022-09-21T14:49:28.276Z,41.16
2022-09-21T14:52:24.753Z,41.03
2022-09-21T14:55:08.370Z,41.63
2022-09-21T14:58:08.187Z,41.89
2022-09-21T15:00:41.288Z,42.13
2022-09-21T15:03:37.171Z,42.37
2022-09-21T15:06:27.859Z,42.71
2022-09-21T15:09:29.986Z,42.90
2022-09-21T15:12:05.107Z,43.09
2022-09-21T15:14:43.994Z,43.64
2022-09-21T15:17:26.517Z,44.09
2022-09-21T15:20:01.023Z,44.35
2022-09-21T15:22:29.672Z,44.71
2022-09-21T15:24:59.908Z,44.61
2022-09-21T15:27:33.293Z,45.07
2022-09-21T15:30:03.530Z,45.27
2022-09-21T15:32:38.671Z,45.39
2022-09-21T15:35:18.086Z,45.49
2022-09-21T15:37:47.796Z,45.77
2022-09-21T15:40:21.883Z,45.88
2022-09-21T15:43:04.039Z,46.86
2022-09-21T15:45:36.991Z,46.71
2022-09-21T15:48:13.375Z,46.74
2022-09-21T15:50:43.290Z,47.06
2022-09-21T15:53:19.797Z,47.44
2022-09-21T15:55:49.036Z,47.70
2022-09-21T15:58:28.691Z,47.89
2022-09-21T16:00:58.055Z,47.98
2022-09-21T16:03:27.351Z,48.21
2022-09-21T16:05:57.497Z,48.58
2022-09-21T16:08:33.541Z,48.59
2022-09-21T16:11:19.107Z,48.94
2022-09-21T16:14:07.175Z,48.87
2022-09-21T16:17:06.405Z,49.29
2022-09-21T16:19:45.615Z,49.34
2022-09-21T16:22:15.163Z,49.37
2022-09-21T16:24:47.801Z,49.50
2022-09-21T16:27:45.287Z,49.68
2022-09-21T16:30:44.966Z,50.11
2022-09-21T16:33:45.003Z,50.30
2022-09-21T16:36:40.900Z,50.32
2022-09-21T16:39:15.691Z,50.54
2022-09-21T16:41:51.055Z,50.59
2022-09-21T16:44:23.148Z,50.69
2022-09-21T16:46:59.795Z,50.81
2022-09-21T16:49:32.343Z,50.94
2022-09-21T16:52:01.544Z,50.97
2022-09-21T16:54:30.663Z,51.20
2022-09-21T16:57:02.611Z,51.46
2022-09-21T16:59:33.316Z,51.63
2022-09-21T17:02:06.115Z,51.80
2022-09-21T17:04:36.013Z,52.13
2022-09-21T17:07:06.712Z,52.04
2022-09-21T17:09:38.585Z,52.43
2022-09-21T17:12:09.147Z,52.47
2022-09-21T17:14:41.860Z,52.75
2022-09-21T17:17:17.761Z,52.67
2022-09-21T17:19:46.716Z,52.63
2022-09-21T17:22:17.722Z,52.79
2022-09-21T17:24:51.230Z,52.86
2022-09-21T17:27:21.341Z,52.81
2022-09-21T17:29:50.575Z,53.06
2022-09-21T17:32:22.167Z,53.20
2022-09-21T17:34:57.087Z,53.32
2022-09-21T17:37:27.029Z,53.57
2022-09-21T17:39:55.481Z,53.64
2022-09-21T17:42:25.976Z,53.75
2022-09-21T17:45:13.017Z,54.24
2022-09-21T17:47:43.826Z,54.13
2022-09-21T17:50:23.489Z,54.34
2022-09-21T17:53:09.983Z,54.28
2022-09-21T17:55:39.974Z,54.45
2022-09-21T17:58:24.511Z,54.51
2022-09-21T18:01:02.110Z,54.54
2022-09-21T18:03:36.038Z,54.60
2022-09-21T18:06:05.331Z,54.85
2022-09-21T18:08:35.619Z,55.04
2022-09-21T18:11:16.850Z,55.01
2022-09-21T18:13:55.392Z,55.27
2022-09-21T18:16:28.477Z,55.44
2022-09-21T18:19:17.471Z,55.67
2022-09-21T18:21:50.772Z,55.86
2022-09-21T18:24:28.701Z,55.78
2022-09-21T18:27:00.424Z,55.80
2022-09-21T18:29:40.902Z,55.82
2022-09-21T18:32:42.355Z,56.08
2022-09-21T18:35:31.184Z,56.09
2022-09-21T18:38:12.830Z,56.30
2022-09-21T18:40:53.139Z,56.33
2022-09-21T18:43:33.660Z,56.40
2022-09-21T18:46:04.793Z,56.45
2022-09-21T18:48:53.035Z,56.84
2022-09-21T18:51:30.572Z,56.80
2022-09-21T18:54:00.760Z,56.84
2022-09-21T18:56:34.176Z,57.13
2022-09-21T18:59:03.595Z,57.05
2022-09-21T19:01:34.482Z,57.01
2022-09-21T19:04:03.509Z,57.00
2022-09-21T19:06:55.735Z,57.25
2022-09-21T19:09:38.285Z,57.40
2022-09-21T19:12:17.713Z,57.37
2022-09-21T19:14:57.843Z,57.51
2022-09-21T19:17:46.212Z,57.58
2022-09-21T19:20:41.897Z,57.64
2022-09-21T19:23:20.796Z,57.37
2022-09-21T19:25:53.409Z,57.55
2022-09-21T19:28:51.838Z,57.91
2022-09-21T19:31:20.846Z,57.84
2022-09-21T19:33:51.193Z,57.92
2022-09-21T19:36:20.509Z,57.92
2022-09-21T19:38:51.133Z,57.96
2022-09-21T19:41:36.444Z,58.13
2022-09-21T19:44:17.897Z,58.21
2022-09-21T19:46:54.833Z,58.26
2022-09-21T19:49:29.645Z,58.36
2022-09-21T19:52:01.573Z,58.48
2022-09-21T19:54:50.150Z,58.29
2022-09-21T19:57:37.914Z,58.54
2022-09-21T20:00:09.018Z,58.36
2022-09-21T20:02:41.738Z,58.38
2022-09-21T20:05:16.424Z,58.31
2022-09-21T20:07:50.821Z,58.58
2022-09-21T20:10:43.776Z,58.53
2022-09-21T20:13:23.080Z,58.60
2022-09-21T20:15:57.079Z,59.11
2022-09-21T20:18:33.711Z,58.92
2022-09-21T20:21:02.636Z,58.80
2022-09-21T20:23:32.450Z,58.74
2022-09-21T20:26:06.686Z,59.04
2022-09-21T20:28:36.183Z,59.06
2022-09-21T20:31:05.537Z,59.12
2022-09-21T20:33:33.890Z,59.20
2022-09-21T20:36:02.681Z,59.23
2022-09-21T20:38:31.383Z,59.39
2022-09-21T20:40:59.750Z,59.45
2022-09-21T20:43:32.579Z,59.26
2022-09-21T20:46:03.663Z,59.46
2022-09-21T20:48:32.214Z,59.45
2022-09-21T20:51:03.555Z,59.52
2022-09-21T20:53:32.044Z,59.58
2022-09-21T20:56:02.263Z,59.39
2022-09-21T20:58:32.378Z,59.38
2022-09-21T21:01:04.833Z,59.42
2022-09-21T21:03:33.848Z,59.14
2022-09-21T21:06:10.332Z,59.40
2022-09-21T21:08:38.755Z,59.42
2022-09-21T21:11:07.209Z,59.70
2022-09-21T21:13:37.660Z,59.41
2022-09-21T21:16:11.063Z,59.47
2022-09-21T21:18:42.875Z,59.71
2022-09-21T21:21:11.220Z,59.82
2022-09-21T21:23:53.540Z,59.99
2022-09-21T21:26:38.306Z,60.00
2022-09-21T21:29:12.583Z,60.02
2022-09-21T21:31:41.279Z,59.95
2022-09-21T21:34:09.731Z,59.80
2022-09-21T21:36:38.136Z,59.81
2022-09-21T21:39:06.620Z,59.74
2022-09-21T21:41:35.199Z,59.84
2022-09-21T21:44:03.800Z,60.07
2022-09-21T21:46:33.737Z,59.84
2022-09-21T21:49:02.244Z,60.08
2022-09-21T21:51:30.587Z,59.97
2022-09-21T21:53:59.053Z,60.03
2022-09-21T21:56:27.520Z,59.99
2022-09-21T21:58:56.895Z,60.30
2022-09-21T22:01:27.091Z,60.36
2022-09-21T22:03:58.572Z,60.24
2022-09-21T22:06:27.677Z,60.33
2022-09-21T22:08:57.484Z,60.30
2022-09-21T22:11:27.163Z,60.38
2022-09-21T22:13:58.631Z,60.28
2022-09-21T22:16:28.930Z,60.09
2022-09-21T22:18:59.455Z,60.44
2022-09-21T22:21:30.344Z,60.19
2022-09-21T22:24:00.462Z,60.33
2022-09-21T22:26:30.584Z,60.36
2022-09-21T22:29:01.330Z,60.07
2022-09-21T22:31:33.037Z,60.22
2022-09-21T22:34:03.120Z,60.21
2022-09-21T22:36:33.291Z,60.48
2022-09-21T22:39:02.139Z,60.44
2022-09-21T22:41:32.747Z,60.46
2022-09-21T22:44:01.419Z,60.61
2022-09-21T22:46:31.230Z,60.41
2022-09-21T22:49:00.724Z,60.60
2022-09-21T22:51:31.181Z,60.49
2022-09-21T22:53:59.835Z,60.61
2022-09-21T22:56:29.484Z,60.64
2022-09-21T22:58:59.470Z,60.67
2022-09-21T23:01:29.347Z,60.39
2022-09-21T23:04:00.432Z,60.67
2022-09-21T23:06:33.485Z,60.71
2022-09-21T23:09:03.654Z,60.52
2022-09-21T23:11:35.007Z,60.90
2022-09-21T23:14:04.047Z,60.88
2022-09-21T23:16:32.867Z,60.86
2022-09-21T23:19:01.904Z,60.72
2022-09-21T23:21:32.658Z,60.76
2022-09-21T23:24:02.655Z,60.88
2022-09-21T23:26:34.132Z,60.84
2022-09-21T23:29:03.955Z,61.01
2022-09-21T23:31:33.635Z,60.73
2022-09-21T23:34:07.493Z,60.72
2022-09-21T23:36:38.008Z,60.54
2022-09-21T23:39:08.251Z,60.67
2022-09-21T23:41:37.956Z,60.69
2022-09-21T23:44:06.502Z,60.79
2022-09-21T23:46:37.087Z,60.72
2022-09-21T23:49:05.886Z,60.63
2022-09-21T23:51:34.411Z,60.74
2022-09-21T23:54:04.832Z,60.83
2022-09-21T23:56:34.237Z,60.80
2022-09-21T23:59:02.980Z,60.95
